createdAt,value
2019-02-05T00:01:59.033Z,5.90
2019-02-05T00:04:30.718Z,13.23
2019-02-05T00:07:00.706Z,7.77
2019-02-05T00:09:30.592Z,6.53
2019-02-05T00:12:04.456Z,7.60
2019-02-05T00:14:34.493Z,5.47
2019-02-05T00:17:04.468Z,5.80
2019-02-05T00:19:34.605Z,6.67
2019-02-05T00:22:06.137Z,6.97
2019-02-05T00:24:35.988Z,5.70
2019-02-05T00:27:05.885Z,4.33
2019-02-05T00:29:35.679Z,10.50
2019-02-05T00:32:05.591Z,7.97
2019-02-05T00:34:35.397Z,9.00
2019-02-05T00:37:05.312Z,8.73
2019-02-05T00:39:35.357Z,8.90
2019-02-05T00:42:05.404Z,7.80
2019-02-05T00:44:35.337Z,6.57
2019-02-05T00:47:05.273Z,7.43
2019-02-05T00:49:35.107Z,6.23
2019-02-05T00:52:05.069Z,10.37
2019-02-05T00:54:35.337Z,7.43
2019-02-05T00:57:05.656Z,8.48
2019-02-05T00:59:35.622Z,6.90
2019-02-05T01:02:07.774Z,9.03
2019-02-05T01:04:37.391Z,9.70
2019-02-05T01:07:07.441Z,7.33
2019-02-05T01:09:37.492Z,8.77
2019-02-05T01:12:07.549Z,8.83
2019-02-05T01:14:37.749Z,7.57
2019-02-05T01:17:07.972Z,7.55
2019-02-05T01:19:37.978Z,7.93
2019-02-05T01:22:08.114Z,7.90
2019-02-05T01:24:38.449Z,8.00
2019-02-05T01:27:09.802Z,10.30
2019-02-05T01:29:39.972Z,8.67
2019-02-05T01:32:09.737Z,10.50
2019-02-05T01:34:40.239Z,7.57
2019-02-05T01:37:10.087Z,7.53
2019-02-05T01:39:40.004Z,8.60
2019-02-05T01:42:09.950Z,8.63
2019-02-05T01:44:39.919Z,9.03
2019-02-05T01:47:10.208Z,7.03
2019-02-05T01:49:41.125Z,9.53
2019-02-05T01:52:11.047Z,7.90
2019-02-05T01:54:41.017Z,8.43
2019-02-05T01:57:10.916Z,8.87
2019-02-05T01:59:41.815Z,11.40
2019-02-05T02:02:11.881Z,10.33
2019-02-05T02:04:41.861Z,10.53
2019-02-05T02:07:12.089Z,11.87
2019-02-05T02:09:42.052Z,10.13
2019-02-05T02:12:12.341Z,8.83
2019-02-05T02:14:42.352Z,8.20
2019-02-05T02:17:12.948Z,8.18
2019-02-05T02:19:43.108Z,8.23
2019-02-05T02:22:13.141Z,8.15
2019-02-05T02:24:44.160Z,10.43
2019-02-05T02:27:14.196Z,7.33
2019-02-05T02:29:44.109Z,8.97
2019-02-05T02:32:14.088Z,7.05
2019-02-05T02:34:44.317Z,7.47
2019-02-05T02:37:14.487Z,7.60
2019-02-05T02:39:44.599Z,7.47
2019-02-05T02:42:14.633Z,9.73
2019-02-05T02:44:44.937Z,7.17
2019-02-05T02:47:15.093Z,9.87
2019-02-05T02:49:45.549Z,9.83
2019-02-05T02:52:15.688Z,9.87
2019-02-05T02:54:45.727Z,6.17
2019-02-05T02:57:15.824Z,6.87
2019-02-05T02:59:47.197Z,7.15
2019-02-05T03:02:17.729Z,7.93
2019-02-05T03:04:47.937Z,6.40
2019-02-05T03:07:18.298Z,8.63
2019-02-05T03:09:48.895Z,5.90
2019-02-05T03:12:18.892Z,6.83
2019-02-05T03:14:50.238Z,7.23
2019-02-05T03:17:20.387Z,7.30
2019-02-05T03:19:50.315Z,8.57
2019-02-05T03:22:21.621Z,7.40
2019-02-05T03:24:52.032Z,8.43
2019-02-05T03:27:22.384Z,6.75
2019-02-05T03:29:52.576Z,8.30
2019-02-05T03:32:22.593Z,8.73
2019-02-05T03:34:52.494Z,6.53
2019-02-05T03:37:22.964Z,8.00
2019-02-05T03:39:52.958Z,6.77
2019-02-05T03:42:23.264Z,8.83
2019-02-05T03:44:53.707Z,7.73
2019-02-05T03:47:24.583Z,8.43
2019-02-05T03:49:54.690Z,7.20
2019-02-05T03:52:33.174Z,7.27
2019-02-05T03:55:36.185Z,6.00
2019-02-05T03:58:53.545Z,9.33
2019-02-05T04:01:51.120Z,7.67
2019-02-05T04:04:52.227Z,5.60
2019-02-05T04:07:50.937Z,7.43
2019-02-05T04:10:57.385Z,7.43
2019-02-05T04:13:40.606Z,6.60
2019-02-05T04:16:41.624Z,6.80
2019-02-05T04:19:40.751Z,7.10
2019-02-05T04:22:37.904Z,8.40
2019-02-05T04:25:34.047Z,7.12
2019-02-05T04:28:46.689Z,7.93
2019-02-05T04:32:01.051Z,6.83
2019-02-05T04:35:30.356Z,6.90
2019-02-05T04:38:23.092Z,6.50
2019-02-05T04:41:23.162Z,7.27
2019-02-05T04:44:18.931Z,5.27
2019-02-05T04:47:17.588Z,7.27
2019-02-05T04:50:32.086Z,9.17
2019-02-05T04:53:19.501Z,9.03
2019-02-05T04:56:13.174Z,7.43
2019-02-05T04:59:22.960Z,8.53
2019-02-05T05:02:38.964Z,7.63
2019-02-05T05:05:26.441Z,7.20
2019-02-05T05:08:10.506Z,8.53
2019-02-05T05:10:40.493Z,9.98
2019-02-05T05:13:10.735Z,7.00
2019-02-05T05:15:40.693Z,8.23
2019-02-05T05:18:10.974Z,8.93
2019-02-05T05:20:41.668Z,7.23
2019-02-05T05:23:11.713Z,9.37
2019-02-05T05:25:41.724Z,8.37
2019-02-05T05:28:11.900Z,8.77
2019-02-05T05:30:41.767Z,10.10
2019-02-05T05:33:12.427Z,9.27
2019-02-05T05:35:44.554Z,7.50
2019-02-05T05:38:14.885Z,7.17
2019-02-05T05:40:44.967Z,8.03
2019-02-05T05:43:14.793Z,8.57
2019-02-05T05:45:44.709Z,9.07
2019-02-05T05:48:15.189Z,10.10
2019-02-05T05:50:45.371Z,9.50
2019-02-05T05:53:16.032Z,8.13
2019-02-05T05:55:46.043Z,10.03
2019-02-05T05:58:23.202Z,9.35
2019-02-05T06:00:47.904Z,8.97
2019-02-05T06:03:18.054Z,9.47
2019-02-05T06:05:47.926Z,11.00
2019-02-05T06:08:17.822Z,8.73
2019-02-05T06:10:48.025Z,12.10
2019-02-05T06:13:18.594Z,11.23
2019-02-05T06:15:48.725Z,12.23
2019-02-05T06:18:19.978Z,12.27
2019-02-05T06:20:49.968Z,10.13
2019-02-05T06:23:19.953Z,11.33
2019-02-05T06:25:50.056Z,11.37
2019-02-05T06:28:20.011Z,11.00
2019-02-05T06:30:50.264Z,10.43
2019-02-05T06:33:23.497Z,12.63
2019-02-05T06:35:52.348Z,9.73
2019-02-05T06:38:22.341Z,12.07
2019-02-05T06:40:52.217Z,11.47
2019-02-05T06:43:22.121Z,10.73
2019-02-05T06:45:52.125Z,10.70
2019-02-05T06:48:22.158Z,13.60
2019-02-05T06:50:53.167Z,11.53
2019-02-05T06:53:23.155Z,12.47
2019-02-05T06:55:53.150Z,13.23
2019-02-05T06:58:23.011Z,10.57
2019-02-05T07:00:53.278Z,14.00
2019-02-05T07:03:23.182Z,14.17
2019-02-05T07:05:53.236Z,15.07
2019-02-05T07:08:23.141Z,14.10
2019-02-05T07:10:53.142Z,16.33
2019-02-05T07:13:23.173Z,15.37
2019-02-05T07:15:53.623Z,13.63
2019-02-05T07:18:23.676Z,14.83
2019-02-05T07:20:53.642Z,13.53
2019-02-05T07:23:23.713Z,14.63
2019-02-05T07:25:54.214Z,15.20
2019-02-05T07:28:24.134Z,15.00
2019-02-05T07:30:54.083Z,15.07
2019-02-05T07:33:24.423Z,14.33
2019-02-05T07:35:54.532Z,15.53
2019-02-05T07:38:24.506Z,14.20
2019-02-05T07:40:54.532Z,13.90
2019-02-05T07:43:24.867Z,15.17
2019-02-05T07:45:54.945Z,19.33
2019-02-05T07:48:24.883Z,19.30
2019-02-05T07:50:54.905Z,15.63
2019-02-05T07:53:24.940Z,16.43
2019-02-05T07:55:56.432Z,13.97
2019-02-05T07:58:26.455Z,13.87
2019-02-05T08:00:56.667Z,16.57
2019-02-05T08:03:26.653Z,17.00
2019-02-05T08:05:57.730Z,13.67
2019-02-05T08:08:28.354Z,15.27
2019-02-05T08:10:59.526Z,16.67
2019-02-05T08:13:30.412Z,15.97
2019-02-05T08:16:00.468Z,14.03
2019-02-05T08:18:30.508Z,15.43
2019-02-05T08:21:00.566Z,13.83
2019-02-05T08:23:30.516Z,17.53
2019-02-05T08:26:00.585Z,14.13
2019-02-05T08:28:40.608Z,18.23
2019-02-05T08:31:02.239Z,17.27
2019-02-05T08:33:32.352Z,18.03
2019-02-05T08:36:02.274Z,16.27
2019-02-05T08:38:32.341Z,14.43
2019-02-05T08:41:02.287Z,17.67
2019-02-05T08:43:32.344Z,17.47
2019-02-05T08:46:02.242Z,16.27
2019-02-05T08:48:32.233Z,17.70
2019-02-05T08:51:02.694Z,19.23
2019-02-05T08:53:34.022Z,16.03
2019-02-05T08:56:04.229Z,19.30
2019-02-05T08:58:34.092Z,17.23
2019-02-05T09:01:04.967Z,18.20
2019-02-05T09:03:34.929Z,18.90
2019-02-05T09:06:10.371Z,19.87
2019-02-05T09:08:40.454Z,21.63
2019-02-05T09:11:10.600Z,19.27
2019-02-05T09:13:40.527Z,21.70
2019-02-05T09:16:11.042Z,20.17
2019-02-05T09:18:41.156Z,19.03
2019-02-05T09:21:11.292Z,20.47
2019-02-05T09:23:41.479Z,20.70
2019-02-05T09:26:11.870Z,18.27
2019-02-05T09:28:41.831Z,19.67
2019-02-05T09:31:11.866Z,19.27
2019-02-05T09:33:41.887Z,19.23
2019-02-05T09:36:11.987Z,17.33
2019-02-05T09:38:42.150Z,19.13
2019-02-05T09:41:12.267Z,16.33
2019-02-05T09:43:42.410Z,20.73
2019-02-05T09:46:15.811Z,19.70
2019-02-05T09:48:47.176Z,17.17
2019-02-05T09:51:17.323Z,21.90
2019-02-05T09:53:47.408Z,16.47
2019-02-05T09:56:17.496Z,20.63
2019-02-05T09:58:53.759Z,21.03
2019-02-05T10:01:24.570Z,18.00
2019-02-05T10:03:54.422Z,18.87
2019-02-05T10:06:26.390Z,19.07
2019-02-05T10:08:56.659Z,19.70
2019-02-05T10:11:26.642Z,15.70
2019-02-05T10:13:56.749Z,16.87
2019-02-05T10:16:29.446Z,16.13
2019-02-05T10:18:59.924Z,20.37
2019-02-05T10:21:30.178Z,16.03
2019-02-05T10:24:01.723Z,16.00
2019-02-05T10:26:31.652Z,19.07
2019-02-05T10:29:01.694Z,14.47
2019-02-05T10:31:31.846Z,18.00
2019-02-05T10:34:01.917Z,15.87
2019-02-05T10:36:32.644Z,12.93
2019-02-05T10:39:03.609Z,14.67
2019-02-05T10:41:34.670Z,13.60
2019-02-05T10:44:11.739Z,15.90
2019-02-05T10:46:41.898Z,13.17
2019-02-05T10:49:12.003Z,19.30
2019-02-05T10:51:41.980Z,12.50
2019-02-05T10:54:12.048Z,16.00
2019-02-05T10:56:42.149Z,12.83
2019-02-05T10:59:12.256Z,15.73
2019-02-05T11:01:42.739Z,14.43
2019-02-05T11:04:12.722Z,14.03
2019-02-05T11:06:43.493Z,13.53
2019-02-05T11:09:16.036Z,13.60
2019-02-05T11:11:46.297Z,13.20
2019-02-05T11:14:16.375Z,13.63
2019-02-05T11:16:46.308Z,14.47
2019-02-05T11:19:16.527Z,13.53
2019-02-05T11:21:46.574Z,13.63
2019-02-05T11:24:16.621Z,15.40
2019-02-05T11:26:46.627Z,15.77
2019-02-05T11:29:16.538Z,15.40
2019-02-05T11:31:47.025Z,15.13
2019-02-05T11:34:18.711Z,15.40
2019-02-05T11:36:48.757Z,17.90
2019-02-05T11:39:18.868Z,17.70
2019-02-05T11:41:48.868Z,15.33
2019-02-05T11:44:18.847Z,14.60
2019-02-05T11:46:48.799Z,17.03
2019-02-05T11:49:19.665Z,14.23
2019-02-05T11:51:49.662Z,16.23
2019-02-05T11:54:19.613Z,12.93
2019-02-05T11:56:49.716Z,15.43
2019-02-05T11:59:19.682Z,16.80
2019-02-05T12:01:49.678Z,13.03
2019-02-05T12:04:19.761Z,15.17
2019-02-05T12:06:49.901Z,14.83
2019-02-05T12:09:22.906Z,13.10
2019-02-05T12:11:52.855Z,12.97
2019-02-05T12:14:23.110Z,11.80
2019-02-05T12:16:53.044Z,15.03
2019-02-05T12:19:23.061Z,14.90
2019-02-05T12:21:53.402Z,14.57
2019-02-05T12:24:23.449Z,13.77
2019-02-05T12:26:53.790Z,16.03
2019-02-05T12:29:23.817Z,15.10
2019-02-05T12:31:53.931Z,11.93
2019-02-05T12:34:23.877Z,10.97
2019-02-05T12:36:54.092Z,12.37
2019-02-05T12:39:23.988Z,11.80
2019-02-05T12:41:53.897Z,12.30
2019-02-05T12:44:23.869Z,13.60
2019-02-05T12:46:53.830Z,15.97
2019-02-05T12:49:23.870Z,15.03
2019-02-05T12:51:54.253Z,14.17
2019-02-05T12:54:24.171Z,17.60
2019-02-05T12:56:54.225Z,15.10
2019-02-05T12:59:24.410Z,13.63
2019-02-05T13:01:54.385Z,15.67
2019-02-05T13:04:24.300Z,14.77
2019-02-05T13:06:54.527Z,15.00
2019-02-05T13:09:24.885Z,14.97
2019-02-05T13:11:55.066Z,14.33
2019-02-05T13:14:25.327Z,17.70
2019-02-05T13:16:55.810Z,15.17
2019-02-05T13:19:25.986Z,17.27
2019-02-05T13:21:56.044Z,18.40
2019-02-05T13:24:27.964Z,16.07
2019-02-05T13:26:57.930Z,18.97
2019-02-05T13:29:28.932Z,20.90
2019-02-05T13:31:59.037Z,20.67
2019-02-05T13:34:29.408Z,20.73
2019-02-05T13:37:03.109Z,20.60
2019-02-05T13:39:33.232Z,19.33
2019-02-05T13:42:03.137Z,17.43
2019-02-05T13:44:33.183Z,21.20
2019-02-05T13:47:03.530Z,20.37
2019-02-05T13:49:33.438Z,20.63
2019-02-05T13:52:03.221Z,18.10
2019-02-05T13:54:33.252Z,19.30
2019-02-05T13:57:03.274Z,20.03
2019-02-05T13:59:33.259Z,19.67
2019-02-05T14:02:03.833Z,18.73
2019-02-05T14:04:34.202Z,18.93
2019-02-05T14:07:05.771Z,22.50
2019-02-05T14:09:35.812Z,20.10
2019-02-05T14:12:05.856Z,20.10
2019-02-05T14:14:35.684Z,20.47
2019-02-05T14:17:05.899Z,21.40
2019-02-05T14:19:36.858Z,24.93
2019-02-05T14:22:06.900Z,23.27
2019-02-05T14:24:36.874Z,24.67
2019-02-05T14:27:06.788Z,22.90
2019-02-05T14:29:37.112Z,25.23
2019-02-05T14:32:07.120Z,24.90
2019-02-05T14:34:38.193Z,24.23
2019-02-05T14:37:08.357Z,25.17
2019-02-05T14:39:39.352Z,22.70
2019-02-05T14:42:09.399Z,23.53
2019-02-05T14:44:40.316Z,23.43
2019-02-05T14:47:10.461Z,23.43
2019-02-05T14:49:40.505Z,24.83
2019-02-05T14:52:10.493Z,20.47
2019-02-05T14:54:40.348Z,27.90
2019-02-05T14:57:10.736Z,18.77
2019-02-05T14:59:40.651Z,23.57
2019-02-05T15:02:10.895Z,24.43
2019-02-05T15:04:40.925Z,24.37
2019-02-05T15:07:10.879Z,28.30
2019-02-05T15:09:40.931Z,24.80
2019-02-05T15:12:11.058Z,21.03
2019-02-05T15:14:41.902Z,26.40
2019-02-05T15:17:11.780Z,26.73
2019-02-05T15:19:42.204Z,28.17
2019-02-05T15:22:12.098Z,21.83
2019-02-05T15:24:42.249Z,22.60
2019-02-05T15:27:12.257Z,25.00
2019-02-05T15:29:48.322Z,22.17
2019-02-05T15:32:37.343Z,27.60
2019-02-05T15:35:08.062Z,26.80
2019-02-05T15:37:38.167Z,25.67
2019-02-05T15:40:09.673Z,28.37
2019-02-05T15:42:39.759Z,24.10
2019-02-05T15:45:10.733Z,30.13
2019-02-05T15:47:40.959Z,27.00
2019-02-05T15:50:11.237Z,32.53
2019-02-05T15:52:41.277Z,27.03
2019-02-05T15:55:11.785Z,32.27
2019-02-05T15:57:41.887Z,30.03
2019-02-05T16:00:14.811Z,28.85
2019-02-05T16:02:44.828Z,32.30
2019-02-05T16:05:15.065Z,29.20
2019-02-05T16:07:44.993Z,30.77
2019-02-05T16:10:15.730Z,29.23
2019-02-05T16:12:45.630Z,29.60
2019-02-05T16:15:35.969Z,29.60
2019-02-05T16:18:07.990Z,32.20
2019-02-05T16:20:37.848Z,26.77
2019-02-05T16:23:07.928Z,32.28
2019-02-05T16:25:38.189Z,28.40
2019-02-05T16:28:08.240Z,27.50
2019-02-05T16:30:38.262Z,26.07
2019-02-05T16:33:09.489Z,30.07
2019-02-05T16:35:39.640Z,31.20
2019-02-05T16:38:11.773Z,29.50
2019-02-05T16:40:42.001Z,28.53
2019-02-05T16:43:12.253Z,26.97
2019-02-05T16:45:42.894Z,29.93
2019-02-05T16:48:14.146Z,29.67
2019-02-05T16:50:47.084Z,28.80
2019-02-05T16:53:17.566Z,33.40
2019-02-05T16:55:47.828Z,33.27
2019-02-05T16:58:18.994Z,35.03
2019-02-05T17:00:50.286Z,30.37
2019-02-05T17:03:22.665Z,31.80
2019-02-05T17:05:54.530Z,32.27
2019-02-05T17:08:26.047Z,28.13
2019-02-05T17:10:57.333Z,27.93
2019-02-05T17:13:27.458Z,29.13
2019-02-05T17:16:05.065Z,24.93
2019-02-05T17:18:35.963Z,23.70
2019-02-05T17:21:06.640Z,29.33
2019-02-05T17:23:38.021Z,26.27
2019-02-05T17:26:09.933Z,21.97
2019-02-05T17:28:44.713Z,22.20
2019-02-05T17:31:17.059Z,25.00
2019-02-05T17:33:48.219Z,25.80
2019-02-05T17:36:18.933Z,23.30
2019-02-05T17:38:51.419Z,24.57
2019-02-05T17:41:21.657Z,20.97
2019-02-05T17:43:53.217Z,19.57
2019-02-05T17:46:23.417Z,22.27
2019-02-05T17:48:54.929Z,21.70
2019-02-05T17:51:25.171Z,23.73
2019-02-05T17:54:00.133Z,19.37
2019-02-05T17:56:33.079Z,18.50
2019-02-05T17:59:03.314Z,18.43
2019-02-05T18:01:33.741Z,21.27
2019-02-05T18:04:04.991Z,19.27
2019-02-05T18:06:37.106Z,16.83
2019-02-05T18:09:08.943Z,20.77
2019-02-05T18:11:39.629Z,18.77
2019-02-05T18:14:11.849Z,20.70
2019-02-05T18:16:45.157Z,21.90
2019-02-05T18:19:16.866Z,18.90
2019-02-05T18:21:49.831Z,17.83
2019-02-05T18:24:21.096Z,20.43
2019-02-05T18:26:52.260Z,17.77
2019-02-05T18:29:22.894Z,20.13
2019-02-05T18:31:53.444Z,23.27
2019-02-05T18:34:25.861Z,22.40
2019-02-05T18:36:59.169Z,21.67
2019-02-05T18:39:39.945Z,18.20
2019-02-05T18:42:09.238Z,19.60
2019-02-05T18:44:40.399Z,24.87
2019-02-05T18:47:10.584Z,21.73
2019-02-05T18:49:41.060Z,20.27
2019-02-05T18:52:13.641Z,21.07
2019-02-05T18:54:43.964Z,20.90
2019-02-05T18:57:14.306Z,20.53
2019-02-05T18:59:44.822Z,22.27
2019-02-05T19:02:15.193Z,21.53
2019-02-05T19:04:48.101Z,21.20
2019-02-05T19:07:19.176Z,19.37
2019-02-05T19:09:49.442Z,20.17
2019-02-05T19:12:20.947Z,19.17
2019-02-05T19:14:52.962Z,21.40
2019-02-05T19:17:26.652Z,17.50
2019-02-05T19:19:57.333Z,22.67
2019-02-05T19:22:27.520Z,21.20
2019-02-05T19:25:06.210Z,20.20
2019-02-05T19:27:40.325Z,21.17
2019-02-05T19:30:10.998Z,22.73
2019-02-05T19:32:43.473Z,20.77
2019-02-05T19:35:13.910Z,24.27
2019-02-05T19:37:46.649Z,24.50
2019-02-05T19:40:17.075Z,24.33
2019-02-05T19:42:48.756Z,22.03
2019-02-05T19:45:39.844Z,20.10
2019-02-05T19:48:16.157Z,20.03
2019-02-05T19:50:47.106Z,17.87
2019-02-05T19:53:17.741Z,17.07
2019-02-05T19:55:49.324Z,15.93
2019-02-05T19:58:28.277Z,18.63
2019-02-05T20:01:02.921Z,17.67
2019-02-05T20:03:38.911Z,18.77
2019-02-05T20:06:26.864Z,17.47
2019-02-05T20:08:58.279Z,17.87
2019-02-05T20:11:36.945Z,18.27
2019-02-05T20:14:09.643Z,20.37
2019-02-05T20:16:41.819Z,20.47
2019-02-05T20:19:17.204Z,18.83
2019-02-05T20:21:48.165Z,20.73
2019-02-05T20:24:28.132Z,19.37
2019-02-05T20:26:58.945Z,21.70
2019-02-05T20:29:33.631Z,15.17
2019-02-05T20:32:04.961Z,17.30
2019-02-05T20:34:36.456Z,18.70
2019-02-05T20:37:11.138Z,20.00
2019-02-05T20:39:53.665Z,21.83
2019-02-05T20:42:23.996Z,20.77
2019-02-05T20:44:54.069Z,18.77
2019-02-05T20:47:24.241Z,21.73
2019-02-05T20:49:55.930Z,16.53
2019-02-05T20:52:26.637Z,19.90
2019-02-05T20:54:57.984Z,17.10
2019-02-05T20:57:29.423Z,17.30
2019-02-05T21:00:00.822Z,20.57
2019-02-05T21:02:34.800Z,19.07
2019-02-05T21:05:06.438Z,20.47
2019-02-05T21:07:39.694Z,21.20
2019-02-05T21:10:15.266Z,18.63
2019-02-05T21:12:45.401Z,18.53
2019-02-05T21:15:16.875Z,18.37
2019-02-05T21:17:47.117Z,19.20
2019-02-05T21:20:28.807Z,18.97
2019-02-05T21:22:49.959Z,18.73
2019-02-05T21:25:21.558Z,18.17
2019-02-05T21:27:53.730Z,20.73
2019-02-05T21:30:23.878Z,20.27
2019-02-05T21:32:53.972Z,19.37
2019-02-05T21:35:24.059Z,16.70
2019-02-05T21:37:54.124Z,19.00
2019-02-05T21:40:24.839Z,18.60
2019-02-05T21:42:54.809Z,18.80
2019-02-05T21:45:25.048Z,22.83
2019-02-05T21:47:55.377Z,18.00
2019-02-05T21:50:25.836Z,19.43
2019-02-05T21:52:57.932Z,18.93
2019-02-05T21:55:28.558Z,22.53
2019-02-05T21:58:02.057Z,20.23
2019-02-05T22:00:33.104Z,17.23
2019-02-05T22:03:03.172Z,18.97
2019-02-05T22:05:33.443Z,17.73
2019-02-05T22:08:04.345Z,18.57
2019-02-05T22:10:35.652Z,19.10
2019-02-05T22:13:07.363Z,18.37
2019-02-05T22:15:38.519Z,18.67
2019-02-05T22:18:08.625Z,21.43
2019-02-05T22:20:38.799Z,19.17
2019-02-05T22:23:09.272Z,16.97
2019-02-05T22:25:39.490Z,17.53
2019-02-05T22:28:09.921Z,17.70
2019-02-05T22:30:45.870Z,16.57
2019-02-05T22:33:15.911Z,16.63
2019-02-05T22:35:46.067Z,19.20
2019-02-05T22:38:16.320Z,18.70
2019-02-05T22:40:46.561Z,17.53
2019-02-05T22:43:16.724Z,17.00
2019-02-05T22:45:46.835Z,17.83
2019-02-05T22:48:16.925Z,17.83
2019-02-05T22:50:46.736Z,18.43
2019-02-05T22:53:16.765Z,19.80
2019-02-05T22:55:46.815Z,18.70
2019-02-05T22:58:16.936Z,18.47
2019-02-05T23:01:12.831Z,17.43
2019-02-05T23:04:02.591Z,19.20
2019-02-05T23:07:03.010Z,18.10
2019-02-05T23:09:54.969Z,18.07
2019-02-05T23:12:39.142Z,21.10
2019-02-05T23:15:17.205Z,19.80
2019-02-05T23:17:47.238Z,18.37
2019-02-05T23:20:19.662Z,18.07
2019-02-05T23:22:50.038Z,17.40
2019-02-05T23:25:20.265Z,20.13
2019-02-05T23:27:50.410Z,21.80
2019-02-05T23:30:23.158Z,16.63
2019-02-05T23:32:53.098Z,21.87
2019-02-05T23:35:23.227Z,16.83
2019-02-05T23:37:53.247Z,17.97
2019-02-05T23:40:23.135Z,18.20
2019-02-05T23:42:53.043Z,20.37
2019-02-05T23:45:23.178Z,17.97
2019-02-05T23:47:53.354Z,18.00
2019-02-05T23:50:24.093Z,17.80
2019-02-05T23:52:54.816Z,19.43
2019-02-05T23:55:25.131Z,19.37
2019-02-05T23:57:55.254Z,19.77
